This is the latest recevied weather packets stored in our database for station/object KG4IFE-13. If no packets are shown the sender has not sent any weather packets the latest 10 day(s).
| Time | Temp. | Humidity | Pressure | Rain* | Wind** | Luminosity | Snow |
|---|---|---|---|---|---|---|---|
| 1777312426 | 20° C | 48% | 1023.6 hPa | - | - | - | - |
| 1777304902 | 17.22° C | 54% | 1024.5 hPa | - | - | - | - |
| 1777303978 | 16.11° C | 56% | 1024.6 hPa | - | - | - | - |
| 1777303377 | 15.56° C | 56% | 1024.6 hPa | - | - | - | - |
| 1777302776 | 15° C | 59% | 1024.7 hPa | - | - | - | - |
| 1777300367 | 13.89° C | 63% | 1024.9 hPa | - | - | - | - |
| 1777300064 | 13.89° C | 63% | 1024.9 hPa | - | - | - | - |
| 1777299164 | 13.89° C | 66% | 1025 hPa | - | - | - | - |
| 1777298861 | 13.89° C | 66% | 1025 hPa | - | - | - | - |
| 1777296453 | 13.33° C | 68% | 1025 hPa | - | - | - | - |
| 1777295853 | 13.33° C | 69% | 1025 hPa | - | - | - | - |
| 1777293444 | 12.78° C | 71% | 1025 hPa | - | - | - | - |
| 1777291938 | 11.67° C | 74% | 1025.1 hPa | - | - | - | - |
| 1777291036 | 11.67° C | 74% | 1024.8 hPa | - | - | - | - |
| 1777290734 | 11.67° C | 74% | 1024.8 hPa | - | - | - | - |
| 1777289852 | 11.11° C | 76% | 1024.6 hPa | - | - | - | - |
| 1777288326 | 10° C | 78% | 1024.3 hPa | - | - | - | - |
| 1777288025 | 9.44° C | 77% | 1024 hPa | - | - | - | - |
| 1777287724 | 9.44° C | 77% | 1024 hPa | - | - | - | - |
| 1777287424 | 9.44° C | 76% | 1023.8 hPa | - | - | - | - |
| 1777286220 | 9.44° C | 75% | 1023.7 hPa | - | - | - | - |
| 1777285617 | 9.44° C | 75% | 1023.5 hPa | - | - | - | - |
| 1777285015 | 9.44° C | 75% | 1023.5 hPa | - | - | - | - |
| 1777284713 | 9.44° C | 75% | 1023.5 hPa | - | - | - | - |
| 1777283813 | 10° C | 76% | 1023.3 hPa | - | - | - | - |
* Rain since midnight (hover to see other rain measurements)
** Current wind speed in m/s (hover to see current wind gust speed)